Time;durP1;ratioP1;P1;durP2;ratioP2;P2;SDS_P1;SDS_P2;PMS_P1;PMS_P2;Temp;Humidity;BMP_temperature;BMP_pressure;BME280_temperature;BME280_humidity;BME280_pressure;Samples;Min_cycle;Max_cycle;Signal;HPM_P1;HPM_P2
2023/04/15 00:00:57;;;;;;;4.07;1.90;;;16.30;80.00;;;;;;5002045;28;20191;-77
2023/04/15 00:03:27;;;;;;;4.40;1.60;;;16.30;80.20;;;;;;5007823;28;20200;-77
2023/04/15 00:05:56;;;;;;;7.40;1.97;;;16.30;80.30;;;;;;5016852;28;20537;-78
2023/04/15 00:08:24;;;;;;;4.03;2.07;;;16.30;80.20;;;;;;5014965;28;20196;-78
2023/04/15 00:10:54;;;;;;;3.97;2.20;;;16.30;80.30;;;;;;5007420;28;20204;-77
2023/04/15 00:13:23;;;;;;;4.93;2.20;;;16.30;80.10;;;;;;5011865;28;20204;-77
2023/04/15 00:15:51;;;;;;;2.57;1.97;;;16.40;80.00;;;;;;5012034;28;20227;-77
2023/04/15 00:18:19;;;;;;;5.53;2.40;;;16.40;80.00;;;;;;5014466;28;20192;-79
2023/04/15 00:20:48;;;;;;;4.27;1.80;;;16.30;80.00;;;;;;5010198;28;20258;-77
2023/04/15 00:23:16;;;;;;;7.70;2.50;;;16.30;79.90;;;;;;5006851;28;20200;-77
2023/04/15 00:25:45;;;;;;;4.33;2.27;;;16.30;79.90;;;;;;5019570;28;20200;-77
2023/04/15 00:28:15;;;;;;;6.63;2.70;;;16.20;79.80;;;;;;5009854;28;20224;-77
2023/04/15 00:30:43;;;;;;;5.00;2.27;;;16.20;79.90;;;;;;5007402;28;20196;-77
2023/04/15 00:33:12;;;;;;;7.07;2.87;;;16.20;79.90;;;;;;5011285;28;20319;-77
2023/04/15 00:35:41;;;;;;;5.03;2.87;;;16.10;80.10;;;;;;5010681;28;20192;-77
2023/04/15 00:38:10;;;;;;;6.87;3.07;;;16.10;80.10;;;;;;5014885;28;20210;-77
2023/04/15 00:40:38;;;;;;;6.57;3.37;;;16.00;80.40;;;;;;5014463;28;20243;-77
2023/04/15 00:43:07;;;;;;;7.00;3.50;;;16.00;80.40;;;;;;5013862;28;20200;-77
2023/04/15 00:45:37;;;;;;;7.30;3.10;;;15.90;80.50;;;;;;5008994;28;20200;-77
2023/04/15 00:48:06;;;;;;;7.27;3.87;;;15.90;80.60;;;;;;5009720;28;20307;-77
2023/04/15 00:50:34;;;;;;;6.10;3.17;;;15.80;80.70;;;;;;5007847;28;20270;-77
2023/04/15 00:53:02;;;;;;;6.67;3.37;;;15.80;80.80;;;;;;5009572;28;20591;-77
2023/04/15 00:55:31;;;;;;;6.60;3.33;;;15.80;80.90;;;;;;5010208;28;20613;-77
2023/04/15 00:57:59;;;;;;;7.43;3.70;;;15.80;81.00;;;;;;5019814;28;20196;-77
2023/04/15 01:00:29;;;;;;;7.73;3.60;;;15.70;81.00;;;;;;5009135;28;20649;-77
2023/04/15 01:02:59;;;;;;;5.93;3.40;;;15.70;81.10;;;;;;5016939;28;20200;-77
2023/04/15 01:05:28;;;;;;;8.47;3.47;;;15.60;81.10;;;;;;5019787;28;20266;-77
2023/04/15 01:07:57;;;;;;;6.80;3.43;;;15.60;81.20;;;;;;5016984;28;20224;-77
2023/04/15 01:10:26;;;;;;;4.93;3.20;;;15.60;81.20;;;;;;5009474;28;20208;-77
2023/04/15 01:12:54;;;;;;;5.97;3.00;;;15.60;81.30;;;;;;5009484;28;20204;-77
2023/04/15 01:15:23;;;;;;;6.00;3.40;;;15.50;81.20;;;;;;5014766;28;20698;-77
2023/04/15 01:17:51;;;;;;;10.87;3.90;;;15.50;81.30;;;;;;5013207;28;20251;-77
2023/04/15 01:20:22;;;;;;;9.40;4.00;;;15.40;81.30;;;;;;5010761;28;20615;-77
2023/04/15 01:22:51;;;;;;;8.13;3.77;;;15.40;81.50;;;;;;5008978;28;20196;-77
2023/04/15 01:25:27;;;;;;;6.60;4.10;;;15.40;81.60;;;;;;5009503;28;20200;-77
2023/04/15 01:27:55;;;;;;;9.93;4.37;;;15.30;82.60;;;;;;5017520;28;20550;-77
2023/04/15 01:30:24;;;;;;;8.43;4.37;;;15.30;82.60;;;;;;5010617;28;20306;-77
2023/04/15 01:32:53;;;;;;;6.77;4.23;;;15.30;82.50;;;;;;5014725;28;20285;-77
2023/04/15 01:35:22;;;;;;;9.03;4.50;;;15.30;82.60;;;;;;5009851;28;20657;-77
2023/04/15 01:37:51;;;;;;;8.40;3.93;;;15.30;82.70;;;;;;5015509;28;20192;-77
2023/04/15 01:40:20;;;;;;;6.67;3.83;;;15.20;82.60;;;;;;5014681;28;20285;-77
2023/04/15 01:42:49;;;;;;;7.07;4.57;;;15.20;82.70;;;;;;5012426;28;20212;-77
2023/04/15 01:45:18;;;;;;;8.60;5.17;;;15.20;82.90;;;;;;5001722;28;20255;-78
2023/04/15 01:47:46;;;;;;;9.90;5.27;;;15.10;84.00;;;;;;5012413;28;20220;-77
2023/04/15 01:50:15;;;;;;;10.03;5.43;;;15.10;83.20;;;;;;5013151;28;20687;-78
2023/04/15 01:52:43;;;;;;;12.87;5.83;;;15.10;83.40;;;;;;5008915;28;20251;-77
2023/04/15 01:55:13;;;;;;;8.53;5.57;;;15.10;83.50;;;;;;5012731;28;20215;-77
2023/04/15 01:57:42;;;;;;;9.97;5.73;;;15.10;83.70;;;;;;5008802;28;20234;-77
2023/04/15 02:00:12;;;;;;;10.20;6.20;;;15.00;83.60;;;;;;5006447;28;20247;-77
2023/04/15 02:02:41;;;;;;;10.97;6.17;;;15.00;83.70;;;;;;5014586;28;20250;-78
2023/04/15 02:05:09;;;;;;;13.87;6.17;;;15.00;83.80;;;;;;5017199;28;20202;-77
2023/04/15 02:07:38;;;;;;;13.63;6.87;;;15.10;84.90;;;;;;5013566;28;20217;-77
2023/04/15 02:10:07;;;;;;;13.33;6.00;;;15.00;85.60;;;;;;5013665;28;20241;-77
2023/04/15 02:12:36;;;;;;;10.63;6.43;;;14.90;86.90;;;;;;5008400;28;20295;-77
2023/04/15 02:15:05;;;;;;;9.97;6.47;;;14.90;85.80;;;;;;5007493;28;20236;-77
2023/04/15 02:17:36;;;;;;;13.47;6.47;;;14.90;86.00;;;;;;5016412;28;20196;-77
2023/04/15 02:20:05;;;;;;;12.20;6.23;;;14.90;85.90;;;;;;5009411;28;20681;-77
2023/04/15 02:22:34;;;;;;;11.43;6.37;;;14.90;85.80;;;;;;5019568;28;20208;-77
2023/04/15 02:25:02;;;;;;;10.47;6.17;;;14.80;85.80;;;;;;5015030;28;20261;-77
2023/04/15 02:27:31;;;;;;;9.07;5.67;;;14.90;85.70;;;;;;5016861;28;20220;-77
2023/04/15 02:30:00;;;;;;;15.00;5.83;;;14.80;85.60;;;;;;5012296;28;20227;-77
2023/04/15 02:32:28;;;;;;;10.20;6.17;;;14.90;85.80;;;;;;5018984;28;20705;-77
2023/04/15 02:35:04;;;;;;;12.83;6.67;;;14.80;85.70;;;;;;5015546;28;20204;-78
2023/04/15 02:37:35;;;;;;;8.03;5.00;;;14.80;86.10;;;;;;5019565;28;20613;-77
2023/04/15 02:40:04;;;;;;;7.07;4.67;;;14.80;86.30;;;;;;5020872;28;20200;-77
2023/04/15 02:42:33;;;;;;;8.30;4.90;;;14.80;86.20;;;;;;5011298;28;20593;-77
2023/04/15 02:45:01;;;;;;;11.00;5.17;;;14.80;86.10;;;;;;5006238;28;20696;-77
2023/04/15 02:47:30;;;;;;;9.93;4.40;;;14.80;86.80;;;;;;5010285;28;20213;-77
2023/04/15 02:50:00;;;;;;;10.60;5.50;;;14.70;85.90;;;;;;5013943;28;20205;-77
2023/04/15 02:52:28;;;;;;;8.57;4.70;;;14.80;86.00;;;;;;5014849;28;20196;-77
2023/04/15 02:54:59;;;;;;;7.43;4.73;;;14.70;86.10;;;;;;5007157;28;20196;-77
2023/04/15 02:57:28;;;;;;;9.20;5.03;;;14.70;86.10;;;;;;5006862;28;20277;-77
2023/04/15 02:59:56;;;;;;;9.20;4.43;;;14.80;86.00;;;;;;5013032;28;20208;-77
2023/04/15 03:02:25;;;;;;;9.33;4.53;;;14.80;86.00;;;;;;5010560;28;20208;-77
2023/04/15 03:04:55;;;;;;;6.73;4.07;;;14.80;86.00;;;;;;5016340;28;20200;-77
2023/04/15 03:07:25;;;;;;;5.87;3.50;;;14.80;85.90;;;;;;5017069;28;20195;-77
2023/04/15 03:09:54;;;;;;;10.90;4.10;;;14.80;86.00;;;;;;5007287;28;20208;-78
2023/04/15 03:12:22;;;;;;;8.53;4.23;;;14.70;85.90;;;;;;5010480;28;20207;-77
2023/04/15 03:14:50;;;;;;;7.33;3.83;;;14.70;85.80;;;;;;5015703;28;20205;-77
2023/04/15 03:17:19;;;;;;;9.00;4.43;;;14.80;85.80;;;;;;5011876;28;20204;-78
2023/04/15 03:19:47;;;;;;;10.73;4.30;;;14.70;85.80;;;;;;5007986;28;20291;-78
2023/04/15 03:22:16;;;;;;;8.87;4.83;;;14.70;85.80;;;;;;5010044;28;20251;-78
2023/04/15 03:24:45;;;;;;;9.03;4.20;;;14.70;85.90;;;;;;5018305;28;20267;-77
2023/04/15 03:27:14;;;;;;;7.73;4.47;;;14.70;85.80;;;;;;5016453;28;20195;-78
2023/04/15 03:29:42;;;;;;;17.07;12.57;;;14.70;85.80;;;;;;5009497;28;20680;-77
2023/04/15 03:32:11;;;;;;;36.83;27.47;;;14.70;85.80;;;;;;5015511;28;20363;-77
2023/04/15 03:34:40;;;;;;;45.73;34.67;;;14.70;85.80;;;;;;5019686;28;20195;-77
2023/04/15 03:37:08;;;;;;;54.33;36.83;;;14.70;85.60;;;;;;5006878;28;20204;-78
2023/04/15 03:39:36;;;;;;;47.10;33.80;;;14.70;85.50;;;;;;5009024;28;20192;-77
2023/04/15 03:42:06;;;;;;;27.93;19.70;;;14.70;85.50;;;;;;5011071;28;20204;-77
2023/04/15 03:44:35;;;;;;;22.13;16.53;;;14.70;85.50;;;;;;5017187;28;20199;-77
2023/04/15 03:47:03;;;;;;;16.73;10.00;;;14.70;85.30;;;;;;5013814;28;20702;-77
2023/04/15 03:49:31;;;;;;;10.57;6.90;;;14.60;85.30;;;;;;5011308;28;20271;-77
2023/04/15 03:52:00;;;;;;;10.37;5.47;;;14.60;85.50;;;;;;5004527;28;20200;-77
2023/04/15 03:54:28;;;;;;;9.47;6.33;;;14.60;85.50;;;;;;5006886;28;20231;-77
2023/04/15 03:56:57;;;;;;;9.50;6.43;;;14.60;85.50;;;;;;5010038;28;20201;-77
2023/04/15 03:59:26;;;;;;;12.53;6.53;;;14.60;85.50;;;;;;4999752;28;20251;-77
2023/04/15 04:01:55;;;;;;;8.13;5.30;;;14.50;85.60;;;;;;5000420;28;20303;-79
2023/04/15 04:04:23;;;;;;;6.50;4.07;;;14.50;85.60;;;;;;5008399;28;20558;-77
2023/04/15 04:06:52;;;;;;;9.63;3.97;;;14.50;85.70;;;;;;5005824;28;20546;-77
2023/04/15 04:09:20;;;;;;;9.37;4.33;;;14.50;85.70;;;;;;5003406;28;20217;-78
2023/04/15 04:11:49;;;;;;;6.80;4.53;;;14.50;86.20;;;;;;5001133;28;20728;-77
2023/04/15 04:14:17;;;;;;;8.80;4.17;;;14.50;86.10;;;;;;5000470;28;20197;-77
2023/04/15 04:16:47;;;;;;;6.73;4.30;;;14.50;86.50;;;;;;5002856;28;20219;-76
2023/04/15 04:19:18;;;;;;;6.83;4.20;;;14.50;86.50;;;;;;5010494;28;20282;-77
2023/04/15 04:21:46;;;;;;;11.37;4.57;;;14.50;86.60;;;;;;5016006;28;20196;-76
2023/04/15 04:24:16;;;;;;;6.93;3.83;;;14.50;86.70;;;;;;5016761;28;20199;-76
2023/04/15 04:26:45;;;;;;;8.80;4.30;;;14.50;87.10;;;;;;5020801;28;20216;-76
2023/04/15 04:29:13;;;;;;;5.47;3.80;;;14.50;87.40;;;;;;5013364;28;20247;-77
2023/04/15 04:31:41;;;;;;;8.80;4.97;;;14.50;87.40;;;;;;5019438;28;20212;-77
2023/04/15 04:34:11;;;;;;;7.43;4.43;;;14.50;87.50;;;;;;5010008;28;20200;-76
2023/04/15 04:36:40;;;;;;;10.97;4.00;;;14.50;87.60;;;;;;4990176;28;20227;-76
2023/04/15 04:39:08;;;;;;;8.60;4.73;;;14.50;87.50;;;;;;5010542;28;20653;-77
2023/04/15 04:41:37;;;;;;;8.63;4.17;;;14.50;87.70;;;;;;5017723;28;20201;-76
2023/04/15 04:44:05;;;;;;;8.80;4.53;;;14.50;88.10;;;;;;5020622;28;20564;-76
2023/04/15 04:46:33;;;;;;;7.53;4.73;;;14.60;88.00;;;;;;5021968;28;20254;-77
2023/04/15 04:49:02;;;;;;;10.80;5.77;;;14.60;87.80;;;;;;5019542;28;20229;-77
2023/04/15 04:51:32;;;;;;;11.10;5.50;;;14.60;88.00;;;;;;5012885;28;20654;-76
2023/04/15 04:54:00;;;;;;;10.87;5.23;;;14.60;88.00;;;;;;5020761;28;20204;-77
2023/04/15 04:56:31;;;;;;;12.30;4.90;;;14.60;87.90;;;;;;5018044;28;20208;-77
2023/04/15 04:58:59;;;;;;;11.03;5.00;;;14.70;88.10;;;;;;5018955;28;20193;-77
2023/04/15 05:01:28;;;;;;;11.23;4.67;;;14.70;88.10;;;;;;5019941;28;20766;-76
2023/04/15 05:03:56;;;;;;;6.50;4.07;;;14.70;88.00;;;;;;5018429;28;20196;-77
2023/04/15 05:06:25;;;;;;;8.20;3.87;;;14.80;88.00;;;;;;5015274;28;20201;-77
2023/04/15 05:08:55;;;;;;;8.77;4.70;;;14.80;87.80;;;;;;5016404;28;20224;-77
2023/04/15 05:11:23;;;;;;;8.67;4.20;;;14.80;87.70;;;;;;5015615;28;20587;-77
2023/04/15 05:13:52;;;;;;;6.67;4.40;;;14.90;87.50;;;;;;5018145;28;20720;-77
2023/04/15 05:16:20;;;;;;;7.90;4.53;;;14.90;87.30;;;;;;5012220;28;20201;-78
2023/04/15 05:18:48;;;;;;;12.27;5.00;;;15.00;87.20;;;;;;5012648;28;20295;-77
2023/04/15 05:21:17;;;;;;;7.93;4.70;;;15.10;87.20;;;;;;5016996;28;20893;-77
2023/04/15 05:23:45;;;;;;;9.13;5.07;;;15.10;86.90;;;;;;5012356;28;20556;-77
2023/04/15 05:26:15;;;;;;;7.87;4.03;;;15.20;86.90;;;;;;5013464;28;20266;-78
2023/04/15 05:28:43;;;;;;;8.60;4.40;;;15.20;86.90;;;;;;5024322;28;20254;-78
2023/04/15 05:31:12;;;;;;;6.27;4.03;;;15.30;86.90;;;;;;5014864;28;20200;-78
2023/04/15 05:33:40;;;;;;;7.90;3.50;;;15.40;86.80;;;;;;5016357;28;20599;-78
2023/04/15 05:36:09;;;;;;;6.00;3.40;;;15.40;86.70;;;;;;5012876;28;20196;-78
2023/04/15 05:38:37;;;;;;;6.20;3.43;;;15.50;86.60;;;;;;5010947;28;20209;-77
2023/04/15 05:41:06;;;;;;;7.97;4.40;;;15.50;86.30;;;;;;5017317;28;20287;-77
2023/04/15 05:43:35;;;;;;;10.50;4.53;;;15.60;86.30;;;;;;5014265;28;20196;-77
2023/04/15 05:46:04;;;;;;;7.17;3.90;;;15.60;86.10;;;;;;5017363;28;20204;-77
2023/04/15 05:48:32;;;;;;;6.40;3.20;;;15.70;85.80;;;;;;5017715;28;20227;-78
2023/04/15 05:51:01;;;;;;;7.80;3.60;;;15.70;85.60;;;;;;5013324;28;20220;-77
2023/04/15 05:53:29;;;;;;;5.53;3.50;;;15.70;85.40;;;;;;5021237;28;20263;-77
2023/04/15 05:55:57;;;;;;;6.97;3.60;;;15.70;85.30;;;;;;5019342;28;20204;-77
2023/04/15 05:58:26;;;;;;;6.13;4.20;;;15.70;85.00;;;;;;5018986;28;20592;-78
2023/04/15 06:00:56;;;;;;;5.27;3.30;;;15.80;85.00;;;;;;5015260;28;20203;-77
2023/04/15 06:03:24;;;;;;;10.30;4.40;;;15.80;84.90;;;;;;5007875;28;20251;-77
2023/04/15 06:05:53;;;;;;;7.03;4.03;;;15.80;84.80;;;;;;5018319;28;20200;-78
2023/04/15 06:08:21;;;;;;;7.30;3.70;;;15.80;84.80;;;;;;5023710;28;20202;-77
2023/04/15 06:10:49;;;;;;;7.33;4.00;;;15.90;84.80;;;;;;5011534;28;20217;-77
2023/04/15 06:13:18;;;;;;;6.27;3.90;;;16.00;84.80;;;;;;5017928;28;20607;-77
2023/04/15 06:15:47;;;;;;;8.73;4.80;;;16.00;84.70;;;;;;5011868;28;20235;-77
2023/04/15 06:18:17;;;;;;;10.03;5.00;;;16.10;85.50;;;;;;5009894;28;20648;-77
2023/04/15 06:20:45;;;;;;;8.32;4.68;;;16.10;84.70;;;;;;5011666;28;20453;-77
2023/04/15 06:23:14;;;;;;;8.10;4.03;;;16.20;85.30;;;;;;5018375;28;20232;-78
2023/04/15 06:25:42;;;;;;;6.50;4.23;;;16.20;85.20;;;;;;5015531;28;20278;-78
2023/04/15 06:28:11;;;;;;;9.93;3.90;;;16.30;84.90;;;;;;5020828;28;20582;-77
2023/04/15 06:30:39;;;;;;;6.60;3.73;;;16.30;84.70;;;;;;5017927;28;20212;-78
2023/04/15 06:33:09;;;;;;;8.17;4.40;;;16.30;84.40;;;;;;5008977;28;20227;-77
2023/04/15 06:35:39;;;;;;;7.73;4.53;;;16.40;84.40;;;;;;5013996;28;20246;-77
2023/04/15 06:38:08;;;;;;;6.87;4.57;;;16.40;84.20;;;;;;5012474;28;20196;-77
2023/04/15 06:40:36;;;;;;;7.07;4.80;;;16.50;84.00;;;;;;5019945;28;20258;-76
2023/04/15 06:43:05;;;;;;;8.33;4.30;;;16.50;84.00;;;;;;5012264;28;20331;-77
2023/04/15 06:45:33;;;;;;;9.80;4.50;;;16.60;84.00;;;;;;5011212;28;20204;-77
2023/04/15 06:48:01;;;;;;;9.27;4.40;;;16.60;83.80;;;;;;5007498;28;20205;-77
2023/04/15 06:50:30;;;;;;;7.77;4.60;;;16.70;83.70;;;;;;5009657;28;21152;-77
2023/04/15 06:52:59;;;;;;;8.70;4.70;;;16.70;83.20;;;;;;5015295;28;20201;-77
2023/04/15 06:55:28;;;;;;;7.87;3.93;;;16.70;83.10;;;;;;5013054;28;20208;-78
2023/04/15 06:57:56;;;;;;;8.33;4.10;;;16.80;83.20;;;;;;5014646;28;20657;-77
2023/04/15 07:00:25;;;;;;;8.10;4.30;;;16.90;83.10;;;;;;5015991;28;20609;-77
2023/04/15 07:02:54;;;;;;;9.63;4.90;;;16.90;82.50;;;;;;5018806;28;20200;-76
2023/04/15 07:05:31;;;;;;;7.47;4.20;;;17.00;82.50;;;;;;5020005;28;20200;-78
2023/04/15 07:08:00;;;;;;;7.30;4.07;;;17.00;82.60;;;;;;5018836;28;20207;-76
2023/04/15 07:10:29;;;;;;;6.23;4.17;;;17.00;82.50;;;;;;5011392;28;20263;-77
2023/04/15 07:12:57;;;;;;;10.23;5.13;;;17.10;82.60;;;;;;5008180;28;20202;-77
2023/04/15 07:15:26;;;;;;;7.53;4.03;;;17.10;82.60;;;;;;5009099;28;20208;-78
2023/04/15 07:17:55;;;;;;;7.67;4.47;;;17.10;82.50;;;;;;5018865;28;20239;-77
2023/04/15 07:20:23;;;;;;;7.93;4.13;;;17.20;82.30;;;;;;5014694;28;20552;-77
2023/04/15 07:22:51;;;;;;;9.23;4.20;;;17.20;82.20;;;;;;5017757;28;20201;-77
2023/04/15 07:25:22;;;;;;;7.50;4.10;;;17.30;82.10;;;;;;5011455;28;20197;-78
2023/04/15 07:27:50;;;;;;;11.30;4.07;;;17.40;81.90;;;;;;5015260;28;20250;-77
2023/04/15 07:30:18;;;;;;;8.60;3.87;;;17.40;81.60;;;;;;5016371;28;20620;-77
2023/04/15 07:32:47;;;;;;;11.17;4.07;;;17.50;81.40;;;;;;5022753;28;20242;-77
2023/04/15 07:35:15;;;;;;;7.07;3.07;;;17.60;81.10;;;;;;5019831;28;20208;-78
2023/04/15 07:37:44;;;;;;;4.63;2.70;;;17.60;80.70;;;;;;5005457;28;20200;-77
2023/04/15 07:40:13;;;;;;;9.03;3.40;;;17.70;80.00;;;;;;5011310;28;20254;-77
2023/04/15 07:42:43;;;;;;;5.93;3.30;;;17.70;79.80;;;;;;5018570;28;20207;-77
2023/04/15 07:45:12;;;;;;;5.67;3.20;;;17.80;79.80;;;;;;5008208;28;20192;-78
2023/04/15 07:47:41;;;;;;;6.87;3.20;;;17.80;79.60;;;;;;5015007;28;20204;-77
2023/04/15 07:50:11;;;;;;;5.93;2.97;;;17.90;79.50;;;;;;5020249;28;20202;-77
2023/04/15 07:52:39;;;;;;;7.67;3.30;;;17.90;78.90;;;;;;5017282;28;20195;-79
2023/04/15 07:55:09;;;;;;;8.17;3.13;;;17.90;78.80;;;;;;5013551;28;20196;-78
2023/04/15 07:57:54;;;;;;;4.73;3.00;;;18.00;78.30;;;;;;5017930;28;20207;-76
2023/04/15 08:00:23;;;;;;;6.60;2.40;;;18.00;77.80;;;;;;5011975;28;20199;-77
2023/04/15 08:02:52;;;;;;;6.87;2.47;;;18.10;78.80;;;;;;5004956;28;20567;-77
2023/04/15 08:05:21;;;;;;;6.10;2.80;;;18.10;76.80;;;;;;5016767;28;20208;-77
2023/04/15 08:07:49;;;;;;;5.83;2.17;;;18.10;76.60;;;;;;5017121;28;20200;-75
2023/04/15 08:10:18;;;;;;;7.83;2.23;;;18.10;76.20;;;;;;5015828;28;20200;-77
2023/04/15 08:12:48;;;;;;;7.13;2.37;;;18.20;76.60;;;;;;5007445;28;20196;-77
2023/04/15 08:15:18;;;;;;;7.47;2.83;;;18.30;76.80;;;;;;5018352;28;20211;-76
2023/04/15 08:17:46;;;;;;;6.07;2.80;;;18.30;76.90;;;;;;5019059;28;20567;-76
2023/04/15 08:20:15;;;;;;;3.37;2.10;;;18.40;76.50;;;;;;5016547;28;20203;-76
2023/04/15 08:22:43;;;;;;;6.33;2.70;;;18.40;76.30;;;;;;5017770;28;20601;-80
2023/04/15 08:25:28;;;;;;;7.10;2.70;;;18.40;75.50;;;;;;5007591;28;20262;-79
2023/04/15 08:28:04;;;;;;;5.53;2.77;;;18.50;75.90;;;;;;5005239;28;20736;-78
2023/04/15 08:30:34;;;;;;;8.50;2.70;;;18.50;75.30;;;;;;5010933;28;20266;-77
2023/04/15 08:33:02;;;;;;;4.50;2.03;;;18.50;76.00;;;;;;5010127;28;20251;-77
2023/04/15 08:35:31;;;;;;;5.23;2.07;;;18.60;75.50;;;;;;5017967;28;20300;-78
2023/04/15 08:37:59;;;;;;;2.73;1.63;;;18.60;75.00;;;;;;5012565;28;20576;-76
2023/04/15 08:40:40;;;;;;;5.33;2.00;;;18.70;73.80;;;;;;5013618;28;20240;-78
2023/04/15 08:43:10;;;;;;;7.23;2.07;;;18.80;74.00;;;;;;5014985;28;20254;-77
2023/04/15 08:45:40;;;;;;;4.13;1.80;;;18.90;74.50;;;;;;5017282;28;20200;-77
2023/04/15 08:48:13;;;;;;;2.70;1.50;;;18.90;74.30;;;;;;5016324;28;20247;-79
2023/04/15 08:50:42;;;;;;;6.57;1.83;;;18.90;73.10;;;;;;5003588;28;20250;-76
2023/04/15 08:53:11;;;;;;;4.10;2.07;;;19.00;71.10;;;;;;5012870;28;20204;-78
2023/04/15 08:55:44;;;;;;;5.20;2.20;;;19.10;71.60;;;;;;5011513;28;20712;-78
2023/04/15 08:58:13;;;;;;;4.87;1.63;;;19.10;71.90;;;;;;5016513;28;20196;-77
2023/04/15 09:00:43;;;;;;;4.03;1.40;;;19.20;71.10;;;;;;5008792;28;20196;-75
2023/04/15 09:03:12;;;;;;;5.57;1.47;;;19.20;70.10;;;;;;5008624;28;20203;-78
2023/04/15 09:05:40;;;;;;;2.67;1.33;;;19.30;70.00;;;;;;5008464;28;20303;-78
2023/04/15 09:08:09;;;;;;;6.27;2.07;;;19.30;70.20;;;;;;5007208;28;20255;-79
2023/04/15 09:10:37;;;;;;;3.00;1.70;;;19.30;69.10;;;;;;5013691;28;20200;-77
2023/04/15 09:13:05;;;;;;;3.67;1.33;;;19.40;69.40;;;;;;5016014;28;20299;-77
2023/04/15 09:15:37;;;;;;;4.27;1.83;;;19.40;67.80;;;;;;5016430;28;20200;-76
2023/04/15 09:18:07;;;;;;;2.40;1.30;;;19.40;67.90;;;;;;5007874;28;20243;-77
2023/04/15 09:20:40;;;;;;;3.90;1.60;;;19.50;68.30;;;;;;5014506;28;20258;-77
2023/04/15 09:23:13;;;;;;;3.73;1.67;;;19.60;67.90;;;;;;5011882;28;20188;-75
2023/04/15 09:25:42;;;;;;;5.20;1.37;;;19.70;68.10;;;;;;5019757;28;20240;-79
2023/04/15 09:28:10;;;;;;;2.80;1.48;;;19.70;68.10;;;;;;5012565;28;20220;-77
2023/04/15 09:30:39;;;;;;;4.85;1.30;;;19.70;68.00;;;;;;5015442;28;20200;-76
2023/04/15 09:33:09;;;;;;;4.60;1.48;;;19.80;67.10;;;;;;5018122;28;20228;-75
2023/04/15 09:35:38;;;;;;;2.70;1.50;;;19.80;64.60;;;;;;5012055;28;20672;-77
2023/04/15 09:38:08;;;;;;;4.60;1.67;;;19.80;64.70;;;;;;5018584;28;20204;-76
2023/04/15 09:40:38;;;;;;;3.15;1.40;;;19.90;64.40;;;;;;5006797;28;20219;-79
2023/04/15 09:43:08;;;;;;;3.30;1.33;;;20.00;65.00;;;;;;5013228;28;20575;-80
2023/04/15 09:45:36;;;;;;;2.67;1.20;;;20.00;65.60;;;;;;5012663;28;20199;-80
2023/04/15 09:48:19;;;;;;;1.85;0.90;;;20.10;63.00;;;;;;5020159;28;20624;-80
2023/04/15 09:50:49;;;;;;;2.83;1.02;;;20.10;61.60;;;;;;5007688;28;20193;-78
2023/04/15 09:53:19;;;;;;;3.20;1.05;;;20.20;62.60;;;;;;5009462;28;20615;-81
2023/04/15 09:55:50;;;;;;;5.57;1.60;;;20.30;62.60;;;;;;5007885;28;20197;-80
2023/04/15 09:58:20;;;;;;;3.70;1.80;;;20.40;62.10;;;;;;5007554;28;20200;-81
2023/04/15 10:00:50;;;;;;;3.30;1.50;;;20.50;62.20;;;;;;5017812;28;20204;-80
2023/04/15 10:03:22;;;;;;;2.67;1.20;;;20.50;63.30;;;;;;5020676;28;20192;-81
2023/04/15 10:05:52;;;;;;;3.65;1.38;;;20.60;62.40;;;;;;5028237;28;20203;-81
2023/04/15 10:08:23;;;;;;;17.48;6.30;;;20.70;60.80;;;;;;5021283;28;20219;-80
2023/04/15 10:10:52;;;;;;;8.48;2.80;;;20.70;59.90;;;;;;5015329;28;20200;-78
2023/04/15 10:13:22;;;;;;;5.55;2.65;;;20.70;60.50;;;;;;5012258;28;20224;-79
2023/04/15 10:15:56;;;;;;;4.43;1.30;;;20.70;59.40;;;;;;5016370;28;20262;-78
2023/04/15 10:18:27;;;;;;;2.88;1.30;;;20.80;60.00;;;;;;5016618;28;20559;-79
2023/04/15 10:20:55;;;;;;;3.88;1.48;;;20.90;60.10;;;;;;5018089;28;20250;-78
2023/04/15 10:23:24;;;;;;;4.30;2.00;;;20.90;60.10;;;;;;5017059;28;20246;-79
2023/04/15 10:25:54;;;;;;;2.20;1.40;;;21.00;60.10;;;;;;5009571;28;20579;-80
2023/04/15 10:28:22;;;;;;;2.65;1.42;;;21.10;59.60;;;;;;5018573;28;20232;-82
2023/04/15 10:30:52;;;;;;;3.88;1.50;;;21.10;60.10;;;;;;5016080;28;20204;-79
2023/04/15 10:33:24;;;;;;;2.38;1.00;;;21.20;59.50;;;;;;5017406;28;20693;-80
2023/04/15 10:35:55;;;;;;;2.17;1.10;;;21.20;58.60;;;;;;5018499;28;20199;-80
2023/04/15 10:38:34;;;;;;;3.80;1.20;;;21.30;58.00;;;;;;5010626;28;20205;-81
2023/04/15 10:41:17;;;;;;;4.63;1.60;;;21.20;55.20;;;;;;5009108;28;20231;-79
2023/04/15 10:43:51;;;;;;;2.67;1.00;;;21.30;55.80;;;;;;5006643;28;20258;-77
2023/04/15 10:46:35;;;;;;;4.88;1.38;;;21.30;55.70;;;;;;5013143;28;20200;-79
2023/04/15 10:49:09;;;;;;;2.75;1.00;;;21.30;55.70;;;;;;5009343;28;20227;-79
2023/04/15 10:51:43;;;;;;;3.00;0.90;;;21.30;55.10;;;;;;5014455;28;20242;-82
2023/04/15 10:54:22;;;;;;;2.08;1.10;;;21.40;55.50;;;;;;5010285;28;20674;-82
2023/04/15 10:56:52;;;;;;;4.80;1.20;;;21.40;54.20;;;;;;5020961;28;20224;-81
2023/04/15 10:59:22;;;;;;;3.28;1.20;;;21.50;54.20;;;;;;5019719;28;20212;-79
2023/04/15 11:01:52;;;;;;;1.10;0.70;;;21.60;53.60;;;;;;5013341;28;20650;-76
2023/04/15 11:04:54;;;;;;;2.05;0.90;;;21.60;54.00;;;;;;5014172;28;20626;-77
2023/04/15 11:07:47;;;;;;;1.80;0.70;;;21.70;53.90;;;;;;5003017;28;20204;-78
2023/04/15 11:10:55;;;;;;;1.48;0.82;;;21.80;54.00;;;;;;5006008;28;20195;-80
2023/04/15 11:13:27;;;;;;;2.92;0.68;;;21.70;53.20;;;;;;5012642;28;20212;-81
2023/04/15 11:16:02;;;;;;;3.65;0.70;;;21.90;53.80;;;;;;5020094;28;20192;-81
2023/04/15 11:18:33;;;;;;;2.33;0.90;;;21.90;53.60;;;;;;5020856;28;20305;-77
2023/04/15 11:21:03;;;;;;;4.25;0.70;;;22.00;53.50;;;;;;5010548;28;20230;-78
2023/04/15 11:23:38;;;;;;;4.20;1.00;;;22.10;53.00;;;;;;5010375;28;20188;-78
2023/04/15 11:26:10;;;;;;;7.30;0.80;;;22.10;52.20;;;;;;5013988;28;20234;-78
2023/04/15 11:28:40;;;;;;;1.50;0.60;;;22.30;52.70;;;;;;5023939;28;20584;-81
2023/04/15 11:31:11;;;;;;;0.93;0.60;;;22.20;51.10;;;;;;5011927;28;20259;-78
2023/04/15 11:33:46;;;;;;;3.50;0.77;;;22.30;50.50;;;;;;5009351;28;20323;-78
2023/04/15 11:36:15;;;;;;;5.57;0.80;;;22.20;50.10;;;;;;5013974;28;20192;-83
2023/04/15 11:38:46;;;;;;;1.85;0.80;;;22.30;50.60;;;;;;5016672;28;20205;-81
2023/04/15 11:41:15;;;;;;;2.42;0.70;;;22.40;50.30;;;;;;5007695;28;20192;-80
2023/04/15 11:43:43;;;;;;;2.97;0.63;;;22.40;50.00;;;;;;5007921;28;20204;-78
2023/04/15 11:46:12;;;;;;;1.63;0.50;;;22.40;50.80;;;;;;5013777;28;20207;-77
2023/04/15 11:48:43;;;;;;;2.55;1.15;;;22.50;49.70;;;;;;5018567;28;20227;-78
2023/04/15 11:51:13;;;;;;;2.88;0.88;;;22.50;49.90;;;;;;5009706;28;20204;-80
2023/04/15 11:53:53;;;;;;;3.78;0.63;;;22.60;50.70;;;;;;5015865;28;20247;-79
2023/04/15 11:56:23;;;;;;;4.32;0.80;;;22.70;50.90;;;;;;5007925;28;20608;-79
2023/04/15 11:58:55;;;;;;;2.17;0.80;;;22.80;50.80;;;;;;5008931;28;20215;-77
2023/04/15 12:01:31;;;;;;;3.50;0.70;;;22.90;51.00;;;;;;5008029;28;20205;-79
2023/04/15 12:04:00;;;;;;;2.67;0.60;;;23.00;49.80;;;;;;5015457;28;20198;-76
2023/04/15 12:06:35;;;;;;;1.65;0.70;;;23.00;50.00;;;;;;5010566;28;20197;-78
2023/04/15 12:09:13;;;;;;;2.15;0.70;;;23.10;49.90;;;;;;5013902;28;20200;-78
2023/04/15 12:11:48;;;;;;;3.00;0.77;;;23.20;49.90;;;;;;5010426;28;20465;-77
2023/04/15 12:14:22;;;;;;;1.05;0.57;;;23.20;48.90;;;;;;5020203;28;20269;-79
2023/04/15 12:16:53;;;;;;;2.95;0.70;;;23.20;48.90;;;;;;5010699;28;20200;-81
2023/04/15 12:19:27;;;;;;;1.58;0.95;;;23.20;47.40;;;;;;5013968;28;20544;-81
2023/04/15 12:21:59;;;;;;;4.18;0.60;;;23.20;47.90;;;;;;5014782;28;20617;-81
2023/04/15 12:24:32;;;;;;;1.80;0.70;;;23.30;48.30;;;;;;5015314;28;20185;-78
2023/04/15 12:27:03;;;;;;;3.13;0.70;;;23.40;47.90;;;;;;5008120;28;20596;-79
2023/04/15 12:29:33;;;;;;;2.50;0.60;;;23.60;48.10;;;;;;5009289;28;20196;-78
2023/04/15 12:32:07;;;;;;;1.08;0.50;;;23.60;48.10;;;;;;5017504;28;20207;-84
2023/04/15 12:34:37;;;;;;;1.25;0.52;;;23.60;47.10;;;;;;5010039;28;20203;-78
2023/04/15 12:37:08;;;;;;;4.30;0.60;;;23.60;46.60;;;;;;5006303;28;20193;-77
2023/04/15 12:39:39;;;;;;;2.13;0.60;;;23.70;46.30;;;;;;5011584;28;20700;-81
2023/04/15 12:42:09;;;;;;;2.10;0.57;;;23.70;46.90;;;;;;5007978;28;20196;-76
2023/04/15 12:44:38;;;;;;;1.55;0.77;;;23.70;47.10;;;;;;5013056;28;20196;-80
2023/04/15 12:47:08;;;;;;;0.70;0.50;;;23.70;46.50;;;;;;5015925;28;20557;-79
2023/04/15 12:49:36;;;;;;;1.67;0.70;;;23.80;46.30;;;;;;5016478;28;20210;-79
2023/04/15 12:52:06;;;;;;;3.58;0.80;;;23.90;46.30;;;;;;5015516;28;20208;-76
2023/04/15 12:54:34;;;;;;;1.13;0.70;;;23.90;45.50;;;;;;5006214;28;20224;-79
2023/04/15 12:57:04;;;;;;;6.47;0.68;;;23.90;46.00;;;;;;5012942;28;20215;-78
2023/04/15 12:59:35;;;;;;;1.05;0.50;;;24.00;45.20;;;;;;5017469;28;20205;-78